sensor_id;sensor_type;location;lat;lon;timestamp;P1;durP1;ratioP1;P2;durP2;ratioP2
1344;SDS011;15375;48.540;9.268;2022-12-10T00:00:22;69.07;;;32.60;;
1344;SDS011;15375;48.540;9.268;2022-12-10T00:02:47;53.97;;;31.63;;
1344;SDS011;15375;48.540;9.268;2022-12-10T00:05:12;62.43;;;34.30;;
1344;SDS011;15375;48.540;9.268;2022-12-10T00:07:38;56.80;;;35.67;;
1344;SDS011;15375;48.540;9.268;2022-12-10T00:10:03;74.73;;;38.10;;
1344;SDS011;15375;48.540;9.268;2022-12-10T00:12:29;71.70;;;35.77;;
1344;SDS011;15375;48.540;9.268;2022-12-10T00:14:54;68.77;;;34.27;;
1344;SDS011;15375;48.540;9.268;2022-12-10T00:17:20;66.73;;;34.23;;
1344;SDS011;15375;48.540;9.268;2022-12-10T00:19:45;74.53;;;35.20;;
1344;SDS011;15375;48.540;9.268;2022-12-10T00:22:11;72.57;;;38.50;;
1344;SDS011;15375;48.540;9.268;2022-12-10T00:24:36;65.63;;;35.17;;
1344;SDS011;15375;48.540;9.268;2022-12-10T00:27:01;73.63;;;36.50;;
1344;SDS011;15375;48.540;9.268;2022-12-10T00:29:27;64.70;;;35.97;;
1344;SDS011;15375;48.540;9.268;2022-12-10T00:31:52;76.47;;;37.07;;
1344;SDS011;15375;48.540;9.268;2022-12-10T00:34:18;72.90;;;38.47;;
1344;SDS011;15375;48.540;9.268;2022-12-10T00:36:44;91.67;;;37.60;;
1344;SDS011;15375;48.540;9.268;2022-12-10T00:39:12;86.57;;;37.42;;
1344;SDS011;15375;48.540;9.268;2022-12-10T00:41:39;78.13;;;40.13;;
1344;SDS011;15375;48.540;9.268;2022-12-10T00:44:04;81.97;;;39.10;;
1344;SDS011;15375;48.540;9.268;2022-12-10T00:46:30;77.03;;;38.47;;
1344;SDS011;15375;48.540;9.268;2022-12-10T00:48:56;84.83;;;37.97;;
1344;SDS011;15375;48.540;9.268;2022-12-10T00:51:23;79.87;;;37.87;;
1344;SDS011;15375;48.540;9.268;2022-12-10T00:53:51;73.03;;;39.40;;
1344;SDS011;15375;48.540;9.268;2022-12-10T00:56:18;71.83;;;39.17;;
1344;SDS011;15375;48.540;9.268;2022-12-10T00:58:46;77.57;;;34.87;;
1344;SDS011;15375;48.540;9.268;2022-12-10T01:03:40;72.13;;;34.73;;
1344;SDS011;15375;48.540;9.268;2022-12-10T01:06:14;79.03;;;34.60;;
1344;SDS011;15375;48.540;9.268;2022-12-10T01:08:44;67.20;;;36.47;;
1344;SDS011;15375;48.540;9.268;2022-12-10T01:11:11;83.30;;;35.93;;
1344;SDS011;15375;48.540;9.268;2022-12-10T01:13:39;82.63;;;36.90;;
1344;SDS011;15375;48.540;9.268;2022-12-10T01:16:05;68.33;;;35.23;;
1344;SDS011;15375;48.540;9.268;2022-12-10T01:18:33;69.37;;;38.47;;
1344;SDS011;15375;48.540;9.268;2022-12-10T01:21:06;65.20;;;35.40;;
1344;SDS011;15375;48.540;9.268;2022-12-10T01:23:34;88.37;;;36.40;;
1344;SDS011;15375;48.540;9.268;2022-12-10T01:26:01;63.73;;;35.00;;
1344;SDS011;15375;48.540;9.268;2022-12-10T01:28:31;68.17;;;33.60;;
1344;SDS011;15375;48.540;9.268;2022-12-10T01:31:03;60.67;;;31.80;;
1344;SDS011;15375;48.540;9.268;2022-12-10T01:33:49;62.10;;;34.80;;
1344;SDS011;15375;48.540;9.268;2022-12-10T01:36:16;68.77;;;31.53;;
1344;SDS011;15375;48.540;9.268;2022-12-10T01:38:52;66.83;;;32.77;;
1344;SDS011;15375;48.540;9.268;2022-12-10T01:41:22;68.37;;;32.87;;
1344;SDS011;15375;48.540;9.268;2022-12-10T01:43:54;53.47;;;31.47;;
1344;SDS011;15375;48.540;9.268;2022-12-10T01:46:20;60.90;;;33.40;;
1344;SDS011;15375;48.540;9.268;2022-12-10T01:48:46;53.83;;;31.10;;
1344;SDS011;15375;48.540;9.268;2022-12-10T01:51:12;63.20;;;31.60;;
1344;SDS011;15375;48.540;9.268;2022-12-10T01:53:39;54.93;;;33.13;;
1344;SDS011;15375;48.540;9.268;2022-12-10T01:56:05;56.03;;;30.57;;
1344;SDS011;15375;48.540;9.268;2022-12-10T01:58:31;58.87;;;32.60;;
1344;SDS011;15375;48.540;9.268;2022-12-10T02:17:30;85.17;;;39.20;;
1344;SDS011;15375;48.540;9.268;2022-12-10T02:20:05;67.93;;;31.77;;
1344;SDS011;15375;48.540;9.268;2022-12-10T02:22:40;67.03;;;34.10;;
1344;SDS011;15375;48.540;9.268;2022-12-10T02:25:27;68.83;;;33.77;;
1344;SDS011;15375;48.540;9.268;2022-12-10T02:28:01;55.63;;;32.10;;
1344;SDS011;15375;48.540;9.268;2022-12-10T02:30:33;66.00;;;33.78;;
1344;SDS011;15375;48.540;9.268;2022-12-10T02:33:01;74.90;;;35.53;;
1344;SDS011;15375;48.540;9.268;2022-12-10T02:35:30;74.10;;;36.67;;
1344;SDS011;15375;48.540;9.268;2022-12-10T02:38:11;74.97;;;36.78;;
1344;SDS011;15375;48.540;9.268;2022-12-10T02:40:43;69.80;;;35.83;;
1344;SDS011;15375;48.540;9.268;2022-12-10T02:43:13;71.40;;;34.30;;
1344;SDS011;15375;48.540;9.268;2022-12-10T02:45:39;78.47;;;35.93;;
1344;SDS011;15375;48.540;9.268;2022-12-10T02:48:07;64.28;;;36.13;;
1344;SDS011;15375;48.540;9.268;2022-12-10T02:50:34;69.57;;;33.53;;
1344;SDS011;15375;48.540;9.268;2022-12-10T02:53:00;74.67;;;40.23;;
1344;SDS011;15375;48.540;9.268;2022-12-10T02:55:25;70.57;;;35.80;;
1344;SDS011;15375;48.540;9.268;2022-12-10T03:00:32;77.63;;;36.53;;
1344;SDS011;15375;48.540;9.268;2022-12-10T03:11:17;73.50;;;35.23;;
1344;SDS011;15375;48.540;9.268;2022-12-10T03:16:13;63.10;;;34.57;;
1344;SDS011;15375;48.540;9.268;2022-12-10T03:18:40;76.30;;;38.30;;
1344;SDS011;15375;48.540;9.268;2022-12-10T03:21:06;77.10;;;37.78;;
1344;SDS011;15375;48.540;9.268;2022-12-10T03:23:35;71.47;;;33.23;;
1344;SDS011;15375;48.540;9.268;2022-12-10T03:26:04;69.87;;;35.40;;
1344;SDS011;15375;48.540;9.268;2022-12-10T03:28:32;57.97;;;33.92;;
1344;SDS011;15375;48.540;9.268;2022-12-10T03:31:03;64.57;;;35.33;;
1344;SDS011;15375;48.540;9.268;2022-12-10T03:33:29;58.87;;;32.53;;
1344;SDS011;15375;48.540;9.268;2022-12-10T03:35:56;62.47;;;32.47;;
1344;SDS011;15375;48.540;9.268;2022-12-10T03:38:21;58.25;;;31.00;;
1344;SDS011;15375;48.540;9.268;2022-12-10T03:40:47;56.23;;;32.90;;
1344;SDS011;15375;48.540;9.268;2022-12-10T03:43:13;58.03;;;34.80;;
1344;SDS011;15375;48.540;9.268;2022-12-10T03:45:39;65.27;;;34.13;;
1344;SDS011;15375;48.540;9.268;2022-12-10T03:48:05;64.68;;;35.30;;
1344;SDS011;15375;48.540;9.268;2022-12-10T03:50:30;58.53;;;32.10;;
1344;SDS011;15375;48.540;9.268;2022-12-10T03:52:56;54.40;;;31.40;;
1344;SDS011;15375;48.540;9.268;2022-12-10T03:55:21;54.60;;;32.23;;
1344;SDS011;15375;48.540;9.268;2022-12-10T03:57:46;54.37;;;31.53;;
1344;SDS011;15375;48.540;9.268;2022-12-10T04:00:13;60.50;;;34.53;;
1344;SDS011;15375;48.540;9.268;2022-12-10T04:02:39;53.97;;;32.70;;
1344;SDS011;15375;48.540;9.268;2022-12-10T04:05:04;59.47;;;33.80;;
1344;SDS011;15375;48.540;9.268;2022-12-10T04:07:31;53.47;;;33.30;;
1344;SDS011;15375;48.540;9.268;2022-12-10T04:09:57;56.53;;;31.67;;
1344;SDS011;15375;48.540;9.268;2022-12-10T04:12:22;58.43;;;31.13;;
1344;SDS011;15375;48.540;9.268;2022-12-10T04:14:47;53.50;;;30.67;;
1344;SDS011;15375;48.540;9.268;2022-12-10T04:17:32;51.20;;;30.80;;
1344;SDS011;15375;48.540;9.268;2022-12-10T04:19:58;54.40;;;31.00;;
1344;SDS011;15375;48.540;9.268;2022-12-10T04:22:24;56.43;;;30.87;;
1344;SDS011;15375;48.540;9.268;2022-12-10T04:25:10;54.87;;;30.87;;
1344;SDS011;15375;48.540;9.268;2022-12-10T04:27:55;55.37;;;29.73;;
1344;SDS011;15375;48.540;9.268;2022-12-10T04:30:21;51.27;;;30.27;;
1344;SDS011;15375;48.540;9.268;2022-12-10T04:32:46;51.27;;;29.97;;
1344;SDS011;15375;48.540;9.268;2022-12-10T04:35:12;58.07;;;31.67;;
1344;SDS011;15375;48.540;9.268;2022-12-10T04:37:37;50.50;;;28.60;;
1344;SDS011;15375;48.540;9.268;2022-12-10T04:40:03;46.47;;;28.83;;
1344;SDS011;15375;48.540;9.268;2022-12-10T04:42:29;50.17;;;29.93;;
1344;SDS011;15375;48.540;9.268;2022-12-10T04:44:54;50.40;;;30.57;;
1344;SDS011;15375;48.540;9.268;2022-12-10T04:47:19;70.63;;;31.93;;
1344;SDS011;15375;48.540;9.268;2022-12-10T04:49:45;45.87;;;27.37;;
1344;SDS011;15375;48.540;9.268;2022-12-10T04:52:11;48.63;;;29.03;;
1344;SDS011;15375;48.540;9.268;2022-12-10T04:54:39;50.30;;;28.60;;
1344;SDS011;15375;48.540;9.268;2022-12-10T04:57:06;39.87;;;26.37;;
1344;SDS011;15375;48.540;9.268;2022-12-10T04:59:32;52.13;;;31.17;;
1344;SDS011;15375;48.540;9.268;2022-12-10T05:01:57;51.43;;;29.40;;
1344;SDS011;15375;48.540;9.268;2022-12-10T05:04:23;51.33;;;28.60;;
1344;SDS011;15375;48.540;9.268;2022-12-10T05:06:48;65.43;;;32.67;;
1344;SDS011;15375;48.540;9.268;2022-12-10T05:09:14;45.60;;;29.13;;
1344;SDS011;15375;48.540;9.268;2022-12-10T05:11:40;48.63;;;28.37;;
1344;SDS011;15375;48.540;9.268;2022-12-10T05:14:06;49.03;;;29.47;;
1344;SDS011;15375;48.540;9.268;2022-12-10T05:16:34;45.27;;;27.07;;
1344;SDS011;15375;48.540;9.268;2022-12-10T05:18:59;47.57;;;27.57;;
1344;SDS011;15375;48.540;9.268;2022-12-10T05:21:25;44.80;;;27.50;;
1344;SDS011;15375;48.540;9.268;2022-12-10T05:24:15;44.37;;;28.10;;
1344;SDS011;15375;48.540;9.268;2022-12-10T05:26:42;55.63;;;30.90;;
1344;SDS011;15375;48.540;9.268;2022-12-10T05:29:07;50.73;;;31.00;;
1344;SDS011;15375;48.540;9.268;2022-12-10T05:31:33;45.27;;;27.70;;
1344;SDS011;15375;48.540;9.268;2022-12-10T05:33:59;46.90;;;30.20;;
1344;SDS011;15375;48.540;9.268;2022-12-10T05:36:26;44.77;;;26.20;;
1344;SDS011;15375;48.540;9.268;2022-12-10T05:38:54;47.67;;;27.75;;
1344;SDS011;15375;48.540;9.268;2022-12-10T05:41:21;49.40;;;29.57;;
1344;SDS011;15375;48.540;9.268;2022-12-10T05:43:49;51.35;;;27.73;;
1344;SDS011;15375;48.540;9.268;2022-12-10T05:46:15;53.30;;;29.03;;
1344;SDS011;15375;48.540;9.268;2022-12-10T05:48:42;45.38;;;27.27;;
1344;SDS011;15375;48.540;9.268;2022-12-10T05:51:09;45.03;;;28.10;;
1344;SDS011;15375;48.540;9.268;2022-12-10T05:53:37;50.70;;;30.10;;
1344;SDS011;15375;48.540;9.268;2022-12-10T05:56:06;47.53;;;27.43;;
1344;SDS011;15375;48.540;9.268;2022-12-10T05:58:34;51.13;;;30.47;;
1344;SDS011;15375;48.540;9.268;2022-12-10T06:01:05;46.63;;;26.55;;
1344;SDS011;15375;48.540;9.268;2022-12-10T06:03:32;49.17;;;27.87;;
1344;SDS011;15375;48.540;9.268;2022-12-10T06:05:57;47.03;;;27.23;;
1344;SDS011;15375;48.540;9.268;2022-12-10T06:08:23;48.80;;;26.40;;
1344;SDS011;15375;48.540;9.268;2022-12-10T06:10:48;49.00;;;29.63;;
1344;SDS011;15375;48.540;9.268;2022-12-10T06:13:13;43.53;;;27.70;;
1344;SDS011;15375;48.540;9.268;2022-12-10T06:15:40;54.70;;;30.30;;
1344;SDS011;15375;48.540;9.268;2022-12-10T06:18:06;44.80;;;28.35;;
1344;SDS011;15375;48.540;9.268;2022-12-10T06:20:32;54.93;;;30.20;;
1344;SDS011;15375;48.540;9.268;2022-12-10T06:22:58;48.87;;;27.73;;
1344;SDS011;15375;48.540;9.268;2022-12-10T06:25:23;43.00;;;28.30;;
1344;SDS011;15375;48.540;9.268;2022-12-10T06:27:49;48.97;;;29.80;;
1344;SDS011;15375;48.540;9.268;2022-12-10T06:30:14;56.07;;;31.30;;
1344;SDS011;15375;48.540;9.268;2022-12-10T06:32:40;46.97;;;27.73;;
1344;SDS011;15375;48.540;9.268;2022-12-10T06:35:08;48.27;;;28.70;;
1344;SDS011;15375;48.540;9.268;2022-12-10T06:37:34;45.33;;;28.80;;
1344;SDS011;15375;48.540;9.268;2022-12-10T06:39:59;43.27;;;29.23;;
1344;SDS011;15375;48.540;9.268;2022-12-10T06:42:25;40.13;;;25.27;;
1344;SDS011;15375;48.540;9.268;2022-12-10T06:44:50;53.37;;;27.80;;
1344;SDS011;15375;48.540;9.268;2022-12-10T06:47:16;42.30;;;26.20;;
1344;SDS011;15375;48.540;9.268;2022-12-10T06:49:41;46.80;;;27.07;;
1344;SDS011;15375;48.540;9.268;2022-12-10T06:52:06;45.23;;;25.33;;
1344;SDS011;15375;48.540;9.268;2022-12-10T06:54:32;41.30;;;27.10;;
1344;SDS011;15375;48.540;9.268;2022-12-10T06:56:57;40.10;;;25.37;;
1344;SDS011;15375;48.540;9.268;2022-12-10T06:59:23;42.80;;;23.13;;
1344;SDS011;15375;48.540;9.268;2022-12-10T07:01:48;41.47;;;25.50;;
1344;SDS011;15375;48.540;9.268;2022-12-10T07:04:14;41.83;;;24.73;;
1344;SDS011;15375;48.540;9.268;2022-12-10T07:06:39;42.23;;;27.03;;
1344;SDS011;15375;48.540;9.268;2022-12-10T07:09:05;44.93;;;26.27;;
1344;SDS011;15375;48.540;9.268;2022-12-10T07:11:30;38.03;;;24.90;;
1344;SDS011;15375;48.540;9.268;2022-12-10T07:13:59;48.27;;;28.27;;
1344;SDS011;15375;48.540;9.268;2022-12-10T07:16:26;36.20;;;23.87;;
1344;SDS011;15375;48.540;9.268;2022-12-10T07:18:54;41.20;;;25.80;;
1344;SDS011;15375;48.540;9.268;2022-12-10T07:21:24;31.63;;;19.40;;
1344;SDS011;15375;48.540;9.268;2022-12-10T07:23:53;41.63;;;25.97;;
1344;SDS011;15375;48.540;9.268;2022-12-10T07:26:23;38.10;;;23.75;;
1344;SDS011;15375;48.540;9.268;2022-12-10T07:28:49;40.77;;;24.70;;
1344;SDS011;15375;48.540;9.268;2022-12-10T07:31:15;42.67;;;23.30;;
1344;SDS011;15375;48.540;9.268;2022-12-10T07:33:40;44.77;;;27.13;;
1344;SDS011;15375;48.540;9.268;2022-12-10T07:36:07;41.30;;;26.47;;
1344;SDS011;15375;48.540;9.268;2022-12-10T07:38:35;44.17;;;27.00;;
1344;SDS011;15375;48.540;9.268;2022-12-10T07:41:04;50.37;;;28.10;;
1344;SDS011;15375;48.540;9.268;2022-12-10T07:43:32;45.73;;;28.30;;
1344;SDS011;15375;48.540;9.268;2022-12-10T07:46:02;49.53;;;27.40;;
1344;SDS011;15375;48.540;9.268;2022-12-10T07:48:38;42.80;;;25.23;;
1344;SDS011;15375;48.540;9.268;2022-12-10T07:51:05;47.57;;;28.03;;
1344;SDS011;15375;48.540;9.268;2022-12-10T07:53:30;45.33;;;28.43;;
1344;SDS011;15375;48.540;9.268;2022-12-10T07:55:56;43.93;;;27.80;;
1344;SDS011;15375;48.540;9.268;2022-12-10T07:58:22;36.77;;;23.50;;
1344;SDS011;15375;48.540;9.268;2022-12-10T08:00:47;42.97;;;26.60;;
1344;SDS011;15375;48.540;9.268;2022-12-10T08:03:12;44.07;;;28.30;;
1344;SDS011;15375;48.540;9.268;2022-12-10T08:05:38;40.27;;;24.93;;
1344;SDS011;15375;48.540;9.268;2022-12-10T08:08:03;38.77;;;24.50;;
1344;SDS011;15375;48.540;9.268;2022-12-10T08:10:30;36.53;;;24.47;;
1344;SDS011;15375;48.540;9.268;2022-12-10T08:12:59;44.70;;;25.23;;
1344;SDS011;15375;48.540;9.268;2022-12-10T08:15:24;39.40;;;25.33;;
1344;SDS011;15375;48.540;9.268;2022-12-10T08:17:49;40.40;;;25.40;;
1344;SDS011;15375;48.540;9.268;2022-12-10T08:20:15;42.77;;;24.43;;
1344;SDS011;15375;48.540;9.268;2022-12-10T08:22:40;39.47;;;24.13;;
1344;SDS011;15375;48.540;9.268;2022-12-10T08:25:05;34.93;;;23.57;;
1344;SDS011;15375;48.540;9.268;2022-12-10T08:27:31;42.07;;;26.07;;
1344;SDS011;15375;48.540;9.268;2022-12-10T08:29:57;40.50;;;26.30;;
1344;SDS011;15375;48.540;9.268;2022-12-10T08:32:23;39.10;;;24.67;;
1344;SDS011;15375;48.540;9.268;2022-12-10T08:34:48;42.13;;;26.33;;
1344;SDS011;15375;48.540;9.268;2022-12-10T08:37:14;39.17;;;26.03;;
1344;SDS011;15375;48.540;9.268;2022-12-10T08:39:42;37.57;;;26.30;;
1344;SDS011;15375;48.540;9.268;2022-12-10T08:42:08;38.67;;;25.13;;
1344;SDS011;15375;48.540;9.268;2022-12-10T08:44:33;44.97;;;27.17;;
1344;SDS011;15375;48.540;9.268;2022-12-10T08:46:59;39.63;;;25.13;;
1344;SDS011;15375;48.540;9.268;2022-12-10T08:49:24;33.17;;;25.20;;
1344;SDS011;15375;48.540;9.268;2022-12-10T08:51:49;42.97;;;23.53;;
1344;SDS011;15375;48.540;9.268;2022-12-10T08:54:15;40.83;;;23.73;;
1344;SDS011;15375;48.540;9.268;2022-12-10T08:56:40;38.30;;;23.23;;
1344;SDS011;15375;48.540;9.268;2022-12-10T08:59:06;39.70;;;24.07;;
1344;SDS011;15375;48.540;9.268;2022-12-10T09:01:31;36.70;;;22.87;;
1344;SDS011;15375;48.540;9.268;2022-12-10T09:03:57;46.13;;;24.57;;
1344;SDS011;15375;48.540;9.268;2022-12-10T09:06:23;32.03;;;24.37;;
1344;SDS011;15375;48.540;9.268;2022-12-10T09:08:49;36.53;;;22.97;;
1344;SDS011;15375;48.540;9.268;2022-12-10T09:11:19;34.20;;;23.80;;
1344;SDS011;15375;48.540;9.268;2022-12-10T09:13:49;31.83;;;22.20;;
1344;SDS011;15375;48.540;9.268;2022-12-10T09:16:15;33.87;;;22.57;;
1344;SDS011;15375;48.540;9.268;2022-12-10T09:18:41;42.40;;;25.13;;
1344;SDS011;15375;48.540;9.268;2022-12-10T09:21:07;32.80;;;21.13;;
1344;SDS011;15375;48.540;9.268;2022-12-10T09:23:34;35.70;;;24.73;;
1344;SDS011;15375;48.540;9.268;2022-12-10T09:26:00;33.97;;;22.70;;
1344;SDS011;15375;48.540;9.268;2022-12-10T09:28:25;30.37;;;21.33;;
1344;SDS011;15375;48.540;9.268;2022-12-10T09:30:55;35.60;;;23.50;;
1344;SDS011;15375;48.540;9.268;2022-12-10T09:33:21;35.80;;;23.40;;
1344;SDS011;15375;48.540;9.268;2022-12-10T09:35:47;37.43;;;24.50;;
1344;SDS011;15375;48.540;9.268;2022-12-10T09:38:12;41.50;;;26.30;;
1344;SDS011;15375;48.540;9.268;2022-12-10T09:40:40;34.70;;;23.17;;
1344;SDS011;15375;48.540;9.268;2022-12-10T09:43:21;38.40;;;24.90;;
1344;SDS011;15375;48.540;9.268;2022-12-10T09:53:52;35.80;;;22.73;;
1344;SDS011;15375;48.540;9.268;2022-12-10T09:56:25;34.23;;;21.90;;
1344;SDS011;15375;48.540;9.268;2022-12-10T09:58:54;42.10;;;23.57;;
1344;SDS011;15375;48.540;9.268;2022-12-10T10:01:19;59.63;;;33.43;;
1344;SDS011;15375;48.540;9.268;2022-12-10T10:03:49;41.87;;;25.30;;
1344;SDS011;15375;48.540;9.268;2022-12-10T10:06:15;33.83;;;22.13;;
1344;SDS011;15375;48.540;9.268;2022-12-10T10:08:42;34.60;;;23.07;;
1344;SDS011;15375;48.540;9.268;2022-12-10T10:11:34;34.57;;;21.90;;
1344;SDS011;15375;48.540;9.268;2022-12-10T10:17:02;30.40;;;20.20;;
1344;SDS011;15375;48.540;9.268;2022-12-10T10:19:33;34.80;;;22.00;;
1344;SDS011;15375;48.540;9.268;2022-12-10T10:22:00;35.93;;;22.17;;
1344;SDS011;15375;48.540;9.268;2022-12-10T10:24:28;32.13;;;20.87;;
1344;SDS011;15375;48.540;9.268;2022-12-10T10:29:35;32.50;;;22.50;;
1344;SDS011;15375;48.540;9.268;2022-12-10T10:32:11;31.43;;;21.37;;
1344;SDS011;15375;48.540;9.268;2022-12-10T10:34:38;38.00;;;23.20;;
1344;SDS011;15375;48.540;9.268;2022-12-10T10:37:04;31.70;;;21.13;;
1344;SDS011;15375;48.540;9.268;2022-12-10T10:39:30;29.30;;;22.43;;
1344;SDS011;15375;48.540;9.268;2022-12-10T10:41:59;31.97;;;21.93;;
1344;SDS011;15375;48.540;9.268;2022-12-10T10:44:34;32.50;;;23.17;;
1344;SDS011;15375;48.540;9.268;2022-12-10T10:47:01;32.87;;;22.00;;
1344;SDS011;15375;48.540;9.268;2022-12-10T10:49:30;34.40;;;22.40;;
1344;SDS011;15375;48.540;9.268;2022-12-10T10:51:58;30.23;;;21.40;;
1344;SDS011;15375;48.540;9.268;2022-12-10T10:54:33;27.83;;;19.50;;
1344;SDS011;15375;48.540;9.268;2022-12-10T10:57:03;33.40;;;20.33;;
1344;SDS011;15375;48.540;9.268;2022-12-10T10:59:37;31.60;;;19.93;;
1344;SDS011;15375;48.540;9.268;2022-12-10T11:02:20;31.93;;;22.93;;
1344;SDS011;15375;48.540;9.268;2022-12-10T11:05:01;35.80;;;21.30;;
1344;SDS011;15375;48.540;9.268;2022-12-10T11:08:01;33.67;;;19.87;;
1344;SDS011;15375;48.540;9.268;2022-12-10T11:10:32;27.87;;;19.00;;
1344;SDS011;15375;48.540;9.268;2022-12-10T11:15:36;33.83;;;20.90;;
1344;SDS011;15375;48.540;9.268;2022-12-10T11:18:21;32.73;;;19.63;;
1344;SDS011;15375;48.540;9.268;2022-12-10T11:20:57;27.60;;;19.37;;
1344;SDS011;15375;48.540;9.268;2022-12-10T11:23:39;27.03;;;19.57;;
1344;SDS011;15375;48.540;9.268;2022-12-10T11:34:53;24.00;;;17.20;;
1344;SDS011;15375;48.540;9.268;2022-12-10T11:40:50;28.13;;;21.13;;
1344;SDS011;15375;48.540;9.268;2022-12-10T12:01:55;25.77;;;16.10;;
1344;SDS011;15375;48.540;9.268;2022-12-10T12:04:53;27.73;;;17.03;;
1344;SDS011;15375;48.540;9.268;2022-12-10T12:08:12;29.23;;;19.40;;
1344;SDS011;15375;48.540;9.268;2022-12-10T12:13:36;28.83;;;18.50;;
1344;SDS011;15375;48.540;9.268;2022-12-10T12:16:13;27.07;;;17.73;;
1344;SDS011;15375;48.540;9.268;2022-12-10T12:18:47;25.40;;;17.03;;
1344;SDS011;15375;48.540;9.268;2022-12-10T12:21:19;25.60;;;17.30;;
1344;SDS011;15375;48.540;9.268;2022-12-10T12:23:52;28.33;;;16.60;;
1344;SDS011;15375;48.540;9.268;2022-12-10T12:32:04;25.50;;;17.40;;
1344;SDS011;15375;48.540;9.268;2022-12-10T12:37:16;22.20;;;16.70;;
1344;SDS011;15375;48.540;9.268;2022-12-10T12:39:57;24.63;;;16.90;;
1344;SDS011;15375;48.540;9.268;2022-12-10T12:42:30;24.33;;;18.83;;
1344;SDS011;15375;48.540;9.268;2022-12-10T12:45:13;27.17;;;18.53;;
1344;SDS011;15375;48.540;9.268;2022-12-10T12:47:44;27.60;;;20.13;;
1344;SDS011;15375;48.540;9.268;2022-12-10T12:50:28;33.63;;;20.07;;
1344;SDS011;15375;48.540;9.268;2022-12-10T12:53:02;32.90;;;20.03;;
1344;SDS011;15375;48.540;9.268;2022-12-10T12:58:24;21.93;;;16.40;;
1344;SDS011;15375;48.540;9.268;2022-12-10T13:01:08;25.93;;;17.83;;
1344;SDS011;15375;48.540;9.268;2022-12-10T13:03:40;28.13;;;17.57;;
1344;SDS011;15375;48.540;9.268;2022-12-10T13:06:15;31.07;;;17.03;;
1344;SDS011;15375;48.540;9.268;2022-12-10T13:08:41;29.67;;;17.17;;
1344;SDS011;15375;48.540;9.268;2022-12-10T13:13:38;23.87;;;16.30;;
1344;SDS011;15375;48.540;9.268;2022-12-10T13:30:25;23.70;;;14.87;;
1344;SDS011;15375;48.540;9.268;2022-12-10T13:33:02;21.53;;;15.20;;
1344;SDS011;15375;48.540;9.268;2022-12-10T13:35:31;19.27;;;14.00;;
1344;SDS011;15375;48.540;9.268;2022-12-10T13:38:25;23.35;;;16.05;;
1344;SDS011;15375;48.540;9.268;2022-12-10T13:40:57;20.80;;;15.67;;
1344;SDS011;15375;48.540;9.268;2022-12-10T13:43:43;22.47;;;15.23;;
1344;SDS011;15375;48.540;9.268;2022-12-10T13:49:30;31.50;;;19.03;;
1344;SDS011;15375;48.540;9.268;2022-12-10T13:52:07;41.67;;;23.70;;
1344;SDS011;15375;48.540;9.268;2022-12-10T13:57:27;21.73;;;18.50;;
1344;SDS011;15375;48.540;9.268;2022-12-10T14:00:29;23.17;;;16.90;;
1344;SDS011;15375;48.540;9.268;2022-12-10T14:03:15;27.87;;;19.03;;
1344;SDS011;15375;48.540;9.268;2022-12-10T14:05:57;31.60;;;17.53;;
1344;SDS011;15375;48.540;9.268;2022-12-10T14:08:34;24.37;;;16.67;;
1344;SDS011;15375;48.540;9.268;2022-12-10T14:11:04;23.77;;;15.53;;
1344;SDS011;15375;48.540;9.268;2022-12-10T14:13:39;29.93;;;20.43;;
1344;SDS011;15375;48.540;9.268;2022-12-10T14:16:10;35.77;;;21.50;;
1344;SDS011;15375;48.540;9.268;2022-12-10T14:18:38;28.20;;;19.33;;
1344;SDS011;15375;48.540;9.268;2022-12-10T14:21:07;39.97;;;20.67;;
1344;SDS011;15375;48.540;9.268;2022-12-10T14:23:33;28.90;;;20.73;;
1344;SDS011;15375;48.540;9.268;2022-12-10T14:26:05;32.80;;;22.43;;
1344;SDS011;15375;48.540;9.268;2022-12-10T14:28:38;29.33;;;19.13;;
1344;SDS011;15375;48.540;9.268;2022-12-10T14:31:28;28.23;;;19.13;;
1344;SDS011;15375;48.540;9.268;2022-12-10T14:33:58;25.80;;;18.73;;
1344;SDS011;15375;48.540;9.268;2022-12-10T14:36:37;41.50;;;22.40;;
1344;SDS011;15375;48.540;9.268;2022-12-10T14:39:10;30.10;;;19.03;;
1344;SDS011;15375;48.540;9.268;2022-12-10T14:41:39;24.63;;;16.60;;
1344;SDS011;15375;48.540;9.268;2022-12-10T14:44:05;24.40;;;17.57;;
1344;SDS011;15375;48.540;9.268;2022-12-10T14:46:31;25.33;;;18.37;;
1344;SDS011;15375;48.540;9.268;2022-12-10T14:48:57;21.80;;;15.47;;
1344;SDS011;15375;48.540;9.268;2022-12-10T14:51:26;22.70;;;15.53;;
1344;SDS011;15375;48.540;9.268;2022-12-10T14:54:01;22.90;;;16.80;;
1344;SDS011;15375;48.540;9.268;2022-12-10T14:56:33;24.23;;;16.17;;
1344;SDS011;15375;48.540;9.268;2022-12-10T14:59:08;20.47;;;14.37;;
1344;SDS011;15375;48.540;9.268;2022-12-10T15:01:40;24.37;;;19.20;;
1344;SDS011;15375;48.540;9.268;2022-12-10T15:04:16;29.20;;;17.93;;
1344;SDS011;15375;48.540;9.268;2022-12-10T15:06:43;23.30;;;16.60;;
1344;SDS011;15375;48.540;9.268;2022-12-10T15:09:16;25.77;;;17.57;;
1344;SDS011;15375;48.540;9.268;2022-12-10T15:11:45;27.60;;;16.87;;
1344;SDS011;15375;48.540;9.268;2022-12-10T15:14:15;28.83;;;17.13;;
1344;SDS011;15375;48.540;9.268;2022-12-10T15:16:44;24.90;;;16.80;;
1344;SDS011;15375;48.540;9.268;2022-12-10T15:21:45;30.27;;;17.77;;
1344;SDS011;15375;48.540;9.268;2022-12-10T15:24:19;23.60;;;16.50;;
1344;SDS011;15375;48.540;9.268;2022-12-10T15:26:48;26.40;;;18.83;;
1344;SDS011;15375;48.540;9.268;2022-12-10T15:29:26;26.47;;;17.97;;
1344;SDS011;15375;48.540;9.268;2022-12-10T15:32:04;26.83;;;19.20;;
1344;SDS011;15375;48.540;9.268;2022-12-10T15:34:37;28.23;;;18.53;;
1344;SDS011;15375;48.540;9.268;2022-12-10T15:37:06;34.13;;;20.70;;
1344;SDS011;15375;48.540;9.268;2022-12-10T15:39:49;27.93;;;18.50;;
1344;SDS011;15375;48.540;9.268;2022-12-10T15:44:56;30.67;;;19.13;;
1344;SDS011;15375;48.540;9.268;2022-12-10T15:47:25;28.20;;;19.17;;
1344;SDS011;15375;48.540;9.268;2022-12-10T15:49:53;30.43;;;20.03;;
1344;SDS011;15375;48.540;9.268;2022-12-10T15:52:24;31.17;;;19.80;;
1344;SDS011;15375;48.540;9.268;2022-12-10T15:54:53;30.60;;;19.43;;
1344;SDS011;15375;48.540;9.268;2022-12-10T15:57:28;27.63;;;19.30;;
1344;SDS011;15375;48.540;9.268;2022-12-10T15:59:59;33.40;;;20.03;;
1344;SDS011;15375;48.540;9.268;2022-12-10T16:07:37;26.20;;;16.07;;
1344;SDS011;15375;48.540;9.268;2022-12-10T16:10:03;33.93;;;18.87;;
1344;SDS011;15375;48.540;9.268;2022-12-10T16:12:29;24.20;;;17.10;;
1344;SDS011;15375;48.540;9.268;2022-12-10T16:14:55;29.97;;;18.87;;
1344;SDS011;15375;48.540;9.268;2022-12-10T16:17:25;28.87;;;17.00;;
1344;SDS011;15375;48.540;9.268;2022-12-10T16:20:08;29.27;;;18.57;;
1344;SDS011;15375;48.540;9.268;2022-12-10T16:22:47;23.07;;;16.97;;
1344;SDS011;15375;48.540;9.268;2022-12-10T16:25:12;26.40;;;17.70;;
1344;SDS011;15375;48.540;9.268;2022-12-10T16:27:39;30.87;;;17.73;;
1344;SDS011;15375;48.540;9.268;2022-12-10T16:30:18;25.50;;;17.07;;
1344;SDS011;15375;48.540;9.268;2022-12-10T16:32:44;31.90;;;19.80;;
1344;SDS011;15375;48.540;9.268;2022-12-10T16:35:10;29.03;;;17.50;;
1344;SDS011;15375;48.540;9.268;2022-12-10T16:37:38;31.00;;;17.83;;
1344;SDS011;15375;48.540;9.268;2022-12-10T16:40:05;29.37;;;19.13;;
1344;SDS011;15375;48.540;9.268;2022-12-10T16:42:31;26.92;;;18.00;;
1344;SDS011;15375;48.540;9.268;2022-12-10T16:44:56;25.57;;;15.67;;
1344;SDS011;15375;48.540;9.268;2022-12-10T16:47:22;25.63;;;15.90;;
1344;SDS011;15375;48.540;9.268;2022-12-10T16:49:47;29.13;;;18.07;;
1344;SDS011;15375;48.540;9.268;2022-12-10T16:52:15;32.00;;;17.87;;